sensor_id;sensor_type;location;lat;lon;timestamp;P1;durP1;ratioP1;P2;durP2;ratioP2
64932;SDS011;51446;53.850;10.662;2023-08-06T00:00:22;9.70;;;2.50;;
64932;SDS011;51446;53.850;10.662;2023-08-06T00:02:48;7.83;;;2.40;;
64932;SDS011;51446;53.850;10.662;2023-08-06T00:05:14;3.78;;;2.47;;
64932;SDS011;51446;53.850;10.662;2023-08-06T00:07:46;4.75;;;2.42;;
64932;SDS011;51446;53.850;10.662;2023-08-06T00:10:15;5.07;;;2.40;;
64932;SDS011;51446;53.850;10.662;2023-08-06T00:12:42;5.78;;;2.47;;
64932;SDS011;51446;53.850;10.662;2023-08-06T00:15:08;9.05;;;2.05;;
64932;SDS011;51446;53.850;10.662;2023-08-06T00:17:34;3.93;;;2.40;;
64932;SDS011;51446;53.850;10.662;2023-08-06T00:19:59;7.87;;;2.27;;
64932;SDS011;51446;53.850;10.662;2023-08-06T00:22:34;7.18;;;2.35;;
64932;SDS011;51446;53.850;10.662;2023-08-06T00:25:00;4.88;;;2.10;;
64932;SDS011;51446;53.850;10.662;2023-08-06T00:27:25;8.90;;;2.50;;
64932;SDS011;51446;53.850;10.662;2023-08-06T00:29:51;15.55;;;2.60;;
64932;SDS011;51446;53.850;10.662;2023-08-06T00:32:17;2.83;;;2.07;;
64932;SDS011;51446;53.850;10.662;2023-08-06T00:34:42;4.50;;;2.33;;
64932;SDS011;51446;53.850;10.662;2023-08-06T00:37:07;5.07;;;2.60;;
64932;SDS011;51446;53.850;10.662;2023-08-06T00:39:33;4.97;;;2.20;;
64932;SDS011;51446;53.850;10.662;2023-08-06T00:41:58;4.97;;;2.33;;
64932;SDS011;51446;53.850;10.662;2023-08-06T00:44:23;2.90;;;1.97;;
64932;SDS011;51446;53.850;10.662;2023-08-06T00:46:49;4.80;;;2.43;;
64932;SDS011;51446;53.850;10.662;2023-08-06T00:49:14;5.07;;;2.40;;
64932;SDS011;51446;53.850;10.662;2023-08-06T00:51:40;5.17;;;2.10;;
64932;SDS011;51446;53.850;10.662;2023-08-06T00:54:05;2.60;;;2.20;;
64932;SDS011;51446;53.850;10.662;2023-08-06T00:56:31;5.40;;;2.23;;
64932;SDS011;51446;53.850;10.662;2023-08-06T00:59:00;4.70;;;2.35;;
64932;SDS011;51446;53.850;10.662;2023-08-06T01:01:26;6.53;;;2.30;;
64932;SDS011;51446;53.850;10.662;2023-08-06T01:03:51;4.68;;;2.40;;
64932;SDS011;51446;53.850;10.662;2023-08-06T01:06:19;6.07;;;2.50;;
64932;SDS011;51446;53.850;10.662;2023-08-06T01:08:57;5.00;;;2.50;;
64932;SDS011;51446;53.850;10.662;2023-08-06T01:17:44;4.97;;;2.60;;
64932;SDS011;51446;53.850;10.662;2023-08-06T01:20:10;7.50;;;2.60;;
64932;SDS011;51446;53.850;10.662;2023-08-06T01:22:35;5.78;;;2.42;;
64932;SDS011;51446;53.850;10.662;2023-08-06T01:25:01;4.40;;;2.40;;
64932;SDS011;51446;53.850;10.662;2023-08-06T01:27:44;3.23;;;2.13;;
64932;SDS011;51446;53.850;10.662;2023-08-06T01:30:15;6.00;;;2.20;;
64932;SDS011;51446;53.850;10.662;2023-08-06T01:32:46;6.22;;;2.17;;
64932;SDS011;51446;53.850;10.662;2023-08-06T01:35:16;4.17;;;2.33;;
64932;SDS011;51446;53.850;10.662;2023-08-06T01:37:44;3.95;;;2.38;;
64932;SDS011;51446;53.850;10.662;2023-08-06T01:40:09;4.43;;;2.40;;
64932;SDS011;51446;53.850;10.662;2023-08-06T01:42:36;4.82;;;2.67;;
64932;SDS011;51446;53.850;10.662;2023-08-06T01:45:02;5.55;;;2.85;;
64932;SDS011;51446;53.850;10.662;2023-08-06T01:47:29;3.47;;;2.33;;
64932;SDS011;51446;53.850;10.662;2023-08-06T01:49:54;6.93;;;2.85;;
64932;SDS011;51446;53.850;10.662;2023-08-06T01:52:19;3.33;;;2.33;;
64932;SDS011;51446;53.850;10.662;2023-08-06T01:54:44;6.10;;;2.40;;
64932;SDS011;51446;53.850;10.662;2023-08-06T01:57:10;5.07;;;2.40;;
64932;SDS011;51446;53.850;10.662;2023-08-06T01:59:35;7.50;;;2.50;;
64932;SDS011;51446;53.850;10.662;2023-08-06T02:02:00;4.77;;;2.47;;
64932;SDS011;51446;53.850;10.662;2023-08-06T02:04:25;4.17;;;2.43;;
64932;SDS011;51446;53.850;10.662;2023-08-06T02:06:51;5.63;;;2.73;;
64932;SDS011;51446;53.850;10.662;2023-08-06T02:09:16;4.67;;;2.40;;
64932;SDS011;51446;53.850;10.662;2023-08-06T02:11:41;6.17;;;2.77;;
64932;SDS011;51446;53.850;10.662;2023-08-06T02:14:07;3.83;;;2.47;;
64932;SDS011;51446;53.850;10.662;2023-08-06T02:16:32;6.27;;;2.50;;
64932;SDS011;51446;53.850;10.662;2023-08-06T02:18:57;4.50;;;2.83;;
64932;SDS011;51446;53.850;10.662;2023-08-06T02:21:22;4.30;;;2.77;;
64932;SDS011;51446;53.850;10.662;2023-08-06T02:23:48;6.70;;;3.03;;
64932;SDS011;51446;53.850;10.662;2023-08-06T02:26:13;4.63;;;2.30;;
64932;SDS011;51446;53.850;10.662;2023-08-06T02:28:38;5.63;;;2.50;;
64932;SDS011;51446;53.850;10.662;2023-08-06T02:31:03;5.50;;;2.90;;
64932;SDS011;51446;53.850;10.662;2023-08-06T02:33:29;4.70;;;3.00;;
64932;SDS011;51446;53.850;10.662;2023-08-06T02:36:03;7.47;;;3.00;;
64932;SDS011;51446;53.850;10.662;2023-08-06T02:38:31;4.68;;;2.58;;
64932;SDS011;51446;53.850;10.662;2023-08-06T02:40:57;6.00;;;2.97;;
64932;SDS011;51446;53.850;10.662;2023-08-06T02:43:22;3.67;;;2.90;;
64932;SDS011;51446;53.850;10.662;2023-08-06T02:45:47;8.37;;;2.90;;
64932;SDS011;51446;53.850;10.662;2023-08-06T02:48:13;5.30;;;2.93;;
64932;SDS011;51446;53.850;10.662;2023-08-06T02:50:38;6.20;;;2.73;;
64932;SDS011;51446;53.850;10.662;2023-08-06T02:53:05;4.68;;;2.75;;
64932;SDS011;51446;53.850;10.662;2023-08-06T02:55:31;8.35;;;3.30;;
64932;SDS011;51446;53.850;10.662;2023-08-06T02:57:56;5.27;;;2.77;;
64932;SDS011;51446;53.850;10.662;2023-08-06T03:00:22;5.60;;;3.00;;
64932;SDS011;51446;53.850;10.662;2023-08-06T03:02:47;4.30;;;2.87;;
64932;SDS011;51446;53.850;10.662;2023-08-06T03:05:12;4.20;;;2.77;;
64932;SDS011;51446;53.850;10.662;2023-08-06T03:07:38;5.57;;;2.90;;
64932;SDS011;51446;53.850;10.662;2023-08-06T03:10:03;4.40;;;2.80;;
64932;SDS011;51446;53.850;10.662;2023-08-06T03:12:29;4.27;;;2.90;;
64932;SDS011;51446;53.850;10.662;2023-08-06T03:14:54;7.20;;;3.27;;
64932;SDS011;51446;53.850;10.662;2023-08-06T03:17:19;7.80;;;2.93;;
64932;SDS011;51446;53.850;10.662;2023-08-06T03:19:44;4.73;;;3.10;;
64932;SDS011;51446;53.850;10.662;2023-08-06T03:22:10;5.23;;;3.17;;
64932;SDS011;51446;53.850;10.662;2023-08-06T03:24:35;5.87;;;3.00;;
64932;SDS011;51446;53.850;10.662;2023-08-06T03:27:00;10.10;;;3.13;;
64932;SDS011;51446;53.850;10.662;2023-08-06T03:29:27;6.63;;;3.20;;
64932;SDS011;51446;53.850;10.662;2023-08-06T03:31:52;4.28;;;2.90;;
64932;SDS011;51446;53.850;10.662;2023-08-06T03:34:18;7.80;;;3.30;;
64932;SDS011;51446;53.850;10.662;2023-08-06T03:36:43;4.63;;;3.03;;
64932;SDS011;51446;53.850;10.662;2023-08-06T03:39:08;8.00;;;3.43;;
64932;SDS011;51446;53.850;10.662;2023-08-06T03:41:34;6.17;;;3.50;;
64932;SDS011;51446;53.850;10.662;2023-08-06T03:43:59;10.90;;;3.27;;
64932;SDS011;51446;53.850;10.662;2023-08-06T03:46:27;6.28;;;3.05;;
64932;SDS011;51446;53.850;10.662;2023-08-06T03:48:53;6.83;;;3.40;;
64932;SDS011;51446;53.850;10.662;2023-08-06T03:51:18;5.53;;;3.37;;
64932;SDS011;51446;53.850;10.662;2023-08-06T03:53:43;4.13;;;2.67;;
64932;SDS011;51446;53.850;10.662;2023-08-06T03:56:09;9.70;;;3.38;;
64932;SDS011;51446;53.850;10.662;2023-08-06T03:58:34;6.43;;;3.23;;
64932;SDS011;51446;53.850;10.662;2023-08-06T04:00:59;5.47;;;2.97;;
64932;SDS011;51446;53.850;10.662;2023-08-06T04:03:25;6.60;;;3.30;;
64932;SDS011;51446;53.850;10.662;2023-08-06T04:05:51;8.15;;;3.78;;
64932;SDS011;51446;53.850;10.662;2023-08-06T04:08:16;6.93;;;3.93;;
64932;SDS011;51446;53.850;10.662;2023-08-06T04:10:42;7.53;;;3.03;;
64932;SDS011;51446;53.850;10.662;2023-08-06T04:13:07;6.23;;;3.40;;
64932;SDS011;51446;53.850;10.662;2023-08-06T04:15:33;4.40;;;3.20;;
64932;SDS011;51446;53.850;10.662;2023-08-06T04:17:59;6.53;;;3.40;;
64932;SDS011;51446;53.850;10.662;2023-08-06T04:20:24;6.93;;;3.00;;
64932;SDS011;51446;53.850;10.662;2023-08-06T04:22:49;12.20;;;3.30;;
64932;SDS011;51446;53.850;10.662;2023-08-06T04:25:14;6.67;;;3.00;;
64932;SDS011;51446;53.850;10.662;2023-08-06T04:27:40;6.63;;;3.33;;
64932;SDS011;51446;53.850;10.662;2023-08-06T04:30:07;5.00;;;3.30;;
64932;SDS011;51446;53.850;10.662;2023-08-06T04:32:32;5.23;;;3.20;;
64932;SDS011;51446;53.850;10.662;2023-08-06T04:34:57;6.83;;;3.00;;
64932;SDS011;51446;53.850;10.662;2023-08-06T04:37:23;8.02;;;3.35;;
64932;SDS011;51446;53.850;10.662;2023-08-06T04:39:48;6.30;;;3.33;;
64932;SDS011;51446;53.850;10.662;2023-08-06T04:42:14;5.87;;;3.37;;
64932;SDS011;51446;53.850;10.662;2023-08-06T04:44:39;7.67;;;3.20;;
64932;SDS011;51446;53.850;10.662;2023-08-06T04:47:04;9.47;;;3.30;;
64932;SDS011;51446;53.850;10.662;2023-08-06T04:49:30;9.75;;;3.30;;
64932;SDS011;51446;53.850;10.662;2023-08-06T04:51:55;6.50;;;3.00;;
64932;SDS011;51446;53.850;10.662;2023-08-06T04:54:20;9.63;;;3.50;;
64932;SDS011;51446;53.850;10.662;2023-08-06T04:56:46;6.37;;;3.13;;
64932;SDS011;51446;53.850;10.662;2023-08-06T04:59:11;6.97;;;3.40;;
64932;SDS011;51446;53.850;10.662;2023-08-06T05:01:36;5.13;;;3.00;;
64932;SDS011;51446;53.850;10.662;2023-08-06T05:04:01;8.23;;;3.27;;
64932;SDS011;51446;53.850;10.662;2023-08-06T05:06:27;7.10;;;3.50;;
64932;SDS011;51446;53.850;10.662;2023-08-06T05:08:52;4.90;;;3.20;;
64932;SDS011;51446;53.850;10.662;2023-08-06T05:11:17;7.50;;;3.13;;
64932;SDS011;51446;53.850;10.662;2023-08-06T05:13:42;4.80;;;3.03;;
64932;SDS011;51446;53.850;10.662;2023-08-06T05:16:08;4.20;;;2.87;;
64932;SDS011;51446;53.850;10.662;2023-08-06T05:18:33;6.87;;;3.10;;
64932;SDS011;51446;53.850;10.662;2023-08-06T05:20:59;6.63;;;2.88;;
64932;SDS011;51446;53.850;10.662;2023-08-06T05:23:25;6.67;;;3.03;;
64932;SDS011;51446;53.850;10.662;2023-08-06T05:25:50;5.53;;;2.83;;
64932;SDS011;51446;53.850;10.662;2023-08-06T05:28:15;7.57;;;3.20;;
64932;SDS011;51446;53.850;10.662;2023-08-06T05:30:40;5.27;;;2.90;;
64932;SDS011;51446;53.850;10.662;2023-08-06T05:33:06;9.40;;;3.38;;
64932;SDS011;51446;53.850;10.662;2023-08-06T05:35:32;4.63;;;2.70;;
64932;SDS011;51446;53.850;10.662;2023-08-06T05:37:57;10.00;;;3.10;;
64932;SDS011;51446;53.850;10.662;2023-08-06T05:40:22;7.57;;;3.00;;
64932;SDS011;51446;53.850;10.662;2023-08-06T05:42:49;7.83;;;3.00;;
64932;SDS011;51446;53.850;10.662;2023-08-06T05:45:14;5.03;;;3.07;;
64932;SDS011;51446;53.850;10.662;2023-08-06T05:47:40;4.97;;;2.67;;
64932;SDS011;51446;53.850;10.662;2023-08-06T05:50:05;5.63;;;3.10;;
64932;SDS011;51446;53.850;10.662;2023-08-06T05:52:31;4.83;;;2.83;;
64932;SDS011;51446;53.850;10.662;2023-08-06T05:54:56;6.83;;;3.27;;
64932;SDS011;51446;53.850;10.662;2023-08-06T05:57:21;9.17;;;3.40;;
64932;SDS011;51446;53.850;10.662;2023-08-06T05:59:47;8.83;;;3.33;;
64932;SDS011;51446;53.850;10.662;2023-08-06T06:02:12;5.97;;;2.70;;
64932;SDS011;51446;53.850;10.662;2023-08-06T06:04:37;6.47;;;2.90;;
64932;SDS011;51446;53.850;10.662;2023-08-06T06:07:03;7.07;;;3.47;;
64932;SDS011;51446;53.850;10.662;2023-08-06T06:09:28;6.33;;;3.20;;
64932;SDS011;51446;53.850;10.662;2023-08-06T06:11:53;4.47;;;3.07;;
64932;SDS011;51446;53.850;10.662;2023-08-06T06:14:19;3.53;;;2.57;;
64932;SDS011;51446;53.850;10.662;2023-08-06T06:16:44;4.97;;;2.90;;
64932;SDS011;51446;53.850;10.662;2023-08-06T06:19:10;5.65;;;3.30;;
64932;SDS011;51446;53.850;10.662;2023-08-06T06:21:36;10.82;;;3.28;;
64932;SDS011;51446;53.850;10.662;2023-08-06T06:24:02;7.87;;;3.90;;
64932;SDS011;51446;53.850;10.662;2023-08-06T06:26:29;8.07;;;3.63;;
64932;SDS011;51446;53.850;10.662;2023-08-06T06:28:55;6.30;;;2.67;;
64932;SDS011;51446;53.850;10.662;2023-08-06T06:31:20;7.83;;;3.10;;
64932;SDS011;51446;53.850;10.662;2023-08-06T06:33:45;4.90;;;3.20;;
64932;SDS011;51446;53.850;10.662;2023-08-06T06:36:10;7.90;;;3.13;;
64932;SDS011;51446;53.850;10.662;2023-08-06T06:38:36;6.90;;;2.95;;
64932;SDS011;51446;53.850;10.662;2023-08-06T06:41:01;6.63;;;3.37;;
64932;SDS011;51446;53.850;10.662;2023-08-06T06:43:28;6.57;;;3.17;;
64932;SDS011;51446;53.850;10.662;2023-08-06T06:45:55;8.30;;;3.10;;
64932;SDS011;51446;53.850;10.662;2023-08-06T06:48:22;8.23;;;3.08;;
64932;SDS011;51446;53.850;10.662;2023-08-06T06:50:48;7.77;;;3.23;;
64932;SDS011;51446;53.850;10.662;2023-08-06T06:53:13;7.77;;;3.70;;
64932;SDS011;51446;53.850;10.662;2023-08-06T06:55:39;6.03;;;2.60;;
64932;SDS011;51446;53.850;10.662;2023-08-06T06:58:04;6.27;;;2.80;;
64932;SDS011;51446;53.850;10.662;2023-08-06T07:00:29;4.67;;;2.53;;
64932;SDS011;51446;53.850;10.662;2023-08-06T07:02:54;7.63;;;2.60;;
64932;SDS011;51446;53.850;10.662;2023-08-06T07:05:20;7.20;;;2.87;;
64932;SDS011;51446;53.850;10.662;2023-08-06T07:07:45;6.00;;;2.80;;
64932;SDS011;51446;53.850;10.662;2023-08-06T07:10:10;7.30;;;2.47;;
64932;SDS011;51446;53.850;10.662;2023-08-06T07:12:36;5.50;;;2.47;;
64932;SDS011;51446;53.850;10.662;2023-08-06T07:15:04;4.65;;;2.63;;
64932;SDS011;51446;53.850;10.662;2023-08-06T07:17:31;7.10;;;2.90;;
64932;SDS011;51446;53.850;10.662;2023-08-06T07:19:56;6.00;;;2.70;;
64932;SDS011;51446;53.850;10.662;2023-08-06T07:22:21;6.40;;;2.87;;
64932;SDS011;51446;53.850;10.662;2023-08-06T07:24:47;7.03;;;2.90;;
64932;SDS011;51446;53.850;10.662;2023-08-06T07:27:12;5.13;;;2.97;;
64932;SDS011;51446;53.850;10.662;2023-08-06T07:29:37;6.27;;;2.93;;
64932;SDS011;51446;53.850;10.662;2023-08-06T07:32:02;6.17;;;3.20;;
64932;SDS011;51446;53.850;10.662;2023-08-06T07:34:28;4.67;;;2.90;;
64932;SDS011;51446;53.850;10.662;2023-08-06T07:36:53;5.93;;;3.10;;
64932;SDS011;51446;53.850;10.662;2023-08-06T07:39:18;6.63;;;3.23;;
64932;SDS011;51446;53.850;10.662;2023-08-06T07:41:44;6.53;;;2.97;;
64932;SDS011;51446;53.850;10.662;2023-08-06T07:44:10;5.53;;;2.65;;
64932;SDS011;51446;53.850;10.662;2023-08-06T07:46:36;8.93;;;3.22;;
64932;SDS011;51446;53.850;10.662;2023-08-06T07:49:01;6.27;;;2.73;;
64932;SDS011;51446;53.850;10.662;2023-08-06T07:51:27;8.07;;;3.13;;
64932;SDS011;51446;53.850;10.662;2023-08-06T07:53:53;9.38;;;2.85;;
64932;SDS011;51446;53.850;10.662;2023-08-06T07:56:18;7.70;;;2.80;;
64932;SDS011;51446;53.850;10.662;2023-08-06T07:58:43;5.80;;;3.13;;
64932;SDS011;51446;53.850;10.662;2023-08-06T08:01:08;7.43;;;2.90;;
64932;SDS011;51446;53.850;10.662;2023-08-06T08:03:34;6.93;;;3.00;;
64932;SDS011;51446;53.850;10.662;2023-08-06T08:05:59;6.73;;;3.30;;
64932;SDS011;51446;53.850;10.662;2023-08-06T08:08:25;6.23;;;2.60;;
64932;SDS011;51446;53.850;10.662;2023-08-06T08:10:50;7.80;;;3.00;;
64932;SDS011;51446;53.850;10.662;2023-08-06T08:13:15;6.85;;;3.30;;
64932;SDS011;51446;53.850;10.662;2023-08-06T08:15:40;8.37;;;3.80;;
64932;SDS011;51446;53.850;10.662;2023-08-06T08:18:06;5.20;;;3.00;;
64932;SDS011;51446;53.850;10.662;2023-08-06T08:20:31;7.27;;;3.30;;
64932;SDS011;51446;53.850;10.662;2023-08-06T08:22:57;8.60;;;3.70;;
64932;SDS011;51446;53.850;10.662;2023-08-06T08:25:24;8.55;;;3.47;;
64932;SDS011;51446;53.850;10.662;2023-08-06T08:27:49;8.50;;;3.80;;
64932;SDS011;51446;53.850;10.662;2023-08-06T08:30:14;7.57;;;3.43;;
64932;SDS011;51446;53.850;10.662;2023-08-06T08:32:40;7.97;;;3.40;;
64932;SDS011;51446;53.850;10.662;2023-08-06T08:35:05;7.23;;;3.30;;
64932;SDS011;51446;53.850;10.662;2023-08-06T08:37:30;3.63;;;2.50;;
64932;SDS011;51446;53.850;10.662;2023-08-06T08:39:56;6.53;;;3.03;;
64932;SDS011;51446;53.850;10.662;2023-08-06T08:42:21;6.27;;;3.27;;
64932;SDS011;51446;53.850;10.662;2023-08-06T08:44:46;8.45;;;3.50;;
64932;SDS011;51446;53.850;10.662;2023-08-06T08:47:12;4.77;;;2.97;;
64932;SDS011;51446;53.850;10.662;2023-08-06T08:49:41;5.93;;;2.70;;
64932;SDS011;51446;53.850;10.662;2023-08-06T08:52:07;7.28;;;2.78;;
64932;SDS011;51446;53.850;10.662;2023-08-06T08:54:37;8.88;;;2.95;;
64932;SDS011;51446;53.850;10.662;2023-08-06T08:57:03;4.15;;;2.80;;
64932;SDS011;51446;53.850;10.662;2023-08-06T08:59:29;8.70;;;2.70;;
64932;SDS011;51446;53.850;10.662;2023-08-06T09:01:54;7.40;;;2.70;;
64932;SDS011;51446;53.850;10.662;2023-08-06T09:04:21;4.00;;;2.33;;
64932;SDS011;51446;53.850;10.662;2023-08-06T09:06:49;9.68;;;2.60;;
64932;SDS011;51446;53.850;10.662;2023-08-06T09:09:16;9.40;;;2.60;;
64932;SDS011;51446;53.850;10.662;2023-08-06T09:11:50;7.35;;;2.40;;
64932;SDS011;51446;53.850;10.662;2023-08-06T09:14:16;3.58;;;2.33;;
64932;SDS011;51446;53.850;10.662;2023-08-06T09:16:42;5.60;;;2.50;;
64932;SDS011;51446;53.850;10.662;2023-08-06T09:19:09;6.63;;;2.80;;
64932;SDS011;51446;53.850;10.662;2023-08-06T09:21:41;4.45;;;2.53;;
64932;SDS011;51446;53.850;10.662;2023-08-06T09:24:11;7.72;;;2.80;;
64932;SDS011;51446;53.850;10.662;2023-08-06T09:26:37;4.60;;;2.63;;
64932;SDS011;51446;53.850;10.662;2023-08-06T09:29:07;5.85;;;2.42;;
64932;SDS011;51446;53.850;10.662;2023-08-06T09:34:18;4.35;;;2.83;;
64932;SDS011;51446;53.850;10.662;2023-08-06T09:36:48;6.03;;;3.10;;
64932;SDS011;51446;53.850;10.662;2023-08-06T09:39:35;5.80;;;2.73;;
64932;SDS011;51446;53.850;10.662;2023-08-06T09:42:01;6.72;;;2.90;;
64932;SDS011;51446;53.850;10.662;2023-08-06T09:44:27;7.20;;;2.80;;
64932;SDS011;51446;53.850;10.662;2023-08-06T09:46:58;6.95;;;3.22;;
64932;SDS011;51446;53.850;10.662;2023-08-06T09:49:26;5.15;;;3.17;;
64932;SDS011;51446;53.850;10.662;2023-08-06T09:51:57;5.63;;;2.90;;
64932;SDS011;51446;53.850;10.662;2023-08-06T09:54:25;5.13;;;3.10;;
64932;SDS011;51446;53.850;10.662;2023-08-06T09:56:52;5.95;;;3.30;;
64932;SDS011;51446;53.850;10.662;2023-08-06T09:59:18;4.45;;;2.72;;
64932;SDS011;51446;53.850;10.662;2023-08-06T10:01:45;4.43;;;2.05;;
64932;SDS011;51446;53.850;10.662;2023-08-06T10:04:11;7.63;;;2.70;;
64932;SDS011;51446;53.850;10.662;2023-08-06T10:06:40;6.53;;;2.40;;
64932;SDS011;51446;53.850;10.662;2023-08-06T10:09:07;2.90;;;2.20;;
64932;SDS011;51446;53.850;10.662;2023-08-06T10:11:34;5.72;;;2.17;;
64932;SDS011;51446;53.850;10.662;2023-08-06T10:14:12;9.55;;;2.30;;
64932;SDS011;51446;53.850;10.662;2023-08-06T10:16:39;5.33;;;2.10;;
64932;SDS011;51446;53.850;10.662;2023-08-06T10:19:05;4.43;;;2.15;;
64932;SDS011;51446;53.850;10.662;2023-08-06T10:21:34;5.95;;;2.30;;
64932;SDS011;51446;53.850;10.662;2023-08-06T10:23:59;6.07;;;2.60;;
64932;SDS011;51446;53.850;10.662;2023-08-06T10:26:29;7.88;;;2.20;;
64932;SDS011;51446;53.850;10.662;2023-08-06T10:28:55;4.38;;;2.13;;
64932;SDS011;51446;53.850;10.662;2023-08-06T10:31:46;3.57;;;1.97;;
64932;SDS011;51446;53.850;10.662;2023-08-06T10:34:19;5.32;;;1.92;;
64932;SDS011;51446;53.850;10.662;2023-08-06T10:36:44;6.03;;;1.90;;
64932;SDS011;51446;53.850;10.662;2023-08-06T10:39:13;4.80;;;2.13;;
64932;SDS011;51446;53.850;10.662;2023-08-06T10:41:38;2.85;;;1.80;;
64932;SDS011;51446;53.850;10.662;2023-08-06T10:44:08;4.25;;;1.67;;
64932;SDS011;51446;53.850;10.662;2023-08-06T10:46:34;5.07;;;2.03;;
64932;SDS011;51446;53.850;10.662;2023-08-06T10:49:00;9.70;;;2.30;;
64932;SDS011;51446;53.850;10.662;2023-08-06T10:51:26;3.83;;;1.60;;
64932;SDS011;51446;53.850;10.662;2023-08-06T10:53:52;6.60;;;2.10;;
64932;SDS011;51446;53.850;10.662;2023-08-06T10:56:22;4.63;;;1.50;;
64932;SDS011;51446;53.850;10.662;2023-08-06T10:58:49;10.20;;;1.87;;
64932;SDS011;51446;53.850;10.662;2023-08-06T11:01:16;5.15;;;1.70;;
64932;SDS011;51446;53.850;10.662;2023-08-06T11:03:42;3.33;;;1.70;;
64932;SDS011;51446;53.850;10.662;2023-08-06T11:06:09;3.13;;;1.25;;
64932;SDS011;51446;53.850;10.662;2023-08-06T11:08:36;4.68;;;1.70;;
64932;SDS011;51446;53.850;10.662;2023-08-06T11:11:12;5.10;;;1.63;;
64932;SDS011;51446;53.850;10.662;2023-08-06T11:13:43;4.43;;;1.40;;
64932;SDS011;51446;53.850;10.662;2023-08-06T11:16:12;4.60;;;1.70;;
64932;SDS011;51446;53.850;10.662;2023-08-06T11:18:40;4.40;;;1.20;;
64932;SDS011;51446;53.850;10.662;2023-08-06T11:21:07;3.80;;;1.30;;
64932;SDS011;51446;53.850;10.662;2023-08-06T11:23:32;2.33;;;1.30;;
64932;SDS011;51446;53.850;10.662;2023-08-06T11:25:59;4.88;;;1.60;;
64932;SDS011;51446;53.850;10.662;2023-08-06T11:28:24;2.87;;;1.20;;
64932;SDS011;51446;53.850;10.662;2023-08-06T11:30:50;5.10;;;1.30;;
64932;SDS011;51446;53.850;10.662;2023-08-06T11:33:23;4.18;;;1.50;;
64932;SDS011;51446;53.850;10.662;2023-08-06T11:35:52;8.00;;;1.70;;
64932;SDS011;51446;53.850;10.662;2023-08-06T11:38:19;1.83;;;1.20;;
64932;SDS011;51446;53.850;10.662;2023-08-06T11:40:44;6.90;;;1.50;;
64932;SDS011;51446;53.850;10.662;2023-08-06T11:43:10;3.75;;;1.42;;
64932;SDS011;51446;53.850;10.662;2023-08-06T11:45:37;5.00;;;1.90;;
64932;SDS011;51446;53.850;10.662;2023-08-06T11:48:03;4.85;;;1.50;;
64932;SDS011;51446;53.850;10.662;2023-08-06T11:50:29;3.73;;;1.20;;
64932;SDS011;51446;53.850;10.662;2023-08-06T11:52:58;4.95;;;1.45;;
64932;SDS011;51446;53.850;10.662;2023-08-06T11:55:25;3.00;;;1.33;;
64932;SDS011;51446;53.850;10.662;2023-08-06T11:57:53;4.15;;;1.48;;
64932;SDS011;51446;53.850;10.662;2023-08-06T12:00:18;5.23;;;1.67;;
64932;SDS011;51446;53.850;10.662;2023-08-06T12:02:45;3.72;;;1.30;;
64932;SDS011;51446;53.850;10.662;2023-08-06T12:05:12;2.95;;;1.25;;
64932;SDS011;51446;53.850;10.662;2023-08-06T12:07:40;3.87;;;1.47;;
64932;SDS011;51446;53.850;10.662;2023-08-06T12:10:06;7.00;;;1.50;;
64932;SDS011;51446;53.850;10.662;2023-08-06T12:12:33;2.47;;;1.08;;
64932;SDS011;51446;53.850;10.662;2023-08-06T12:14:59;3.63;;;1.60;;
64932;SDS011;51446;53.850;10.662;2023-08-06T12:17:24;3.03;;;1.33;;
64932;SDS011;51446;53.850;10.662;2023-08-06T12:19:50;3.73;;;1.50;;
64932;SDS011;51446;53.850;10.662;2023-08-06T12:22:15;3.03;;;1.50;;
64932;SDS011;51446;53.850;10.662;2023-08-06T12:24:42;2.27;;;1.20;;
64932;SDS011;51446;53.850;10.662;2023-08-06T12:27:07;4.25;;;1.40;;
64932;SDS011;51446;53.850;10.662;2023-08-06T12:29:33;2.92;;;1.10;;
64932;SDS011;51446;53.850;10.662;2023-08-06T12:31:58;3.47;;;1.40;;
64932;SDS011;51446;53.850;10.662;2023-08-06T12:34:24;2.97;;;1.00;;
64932;SDS011;51446;53.850;10.662;2023-08-06T12:36:49;8.00;;;1.43;;
64932;SDS011;51446;53.850;10.662;2023-08-06T12:39:14;1.77;;;0.77;;
64932;SDS011;51446;53.850;10.662;2023-08-06T12:41:40;2.83;;;1.30;;
64932;SDS011;51446;53.850;10.662;2023-08-06T12:44:05;2.90;;;1.13;;
64932;SDS011;51446;53.850;10.662;2023-08-06T12:46:31;5.32;;;1.38;;
64932;SDS011;51446;53.850;10.662;2023-08-06T12:48:56;2.07;;;1.20;;
64932;SDS011;51446;53.850;10.662;2023-08-06T12:51:22;2.85;;;1.10;;
64932;SDS011;51446;53.850;10.662;2023-08-06T12:53:48;3.00;;;1.40;;
64932;SDS011;51446;53.850;10.662;2023-08-06T12:56:13;1.40;;;1.00;;
64932;SDS011;51446;53.850;10.662;2023-08-06T12:58:39;6.47;;;1.43;;
64932;SDS011;51446;53.850;10.662;2023-08-06T13:01:05;5.67;;;1.37;;
64932;SDS011;51446;53.850;10.662;2023-08-06T13:03:30;3.42;;;1.20;;
64932;SDS011;51446;53.850;10.662;2023-08-06T13:05:55;4.13;;;1.40;;
64932;SDS011;51446;53.850;10.662;2023-08-06T13:08:22;3.92;;;1.50;;
64932;SDS011;51446;53.850;10.662;2023-08-06T13:10:48;5.37;;;1.40;;
64932;SDS011;51446;53.850;10.662;2023-08-06T13:13:13;7.87;;;1.70;;
64932;SDS011;51446;53.850;10.662;2023-08-06T13:15:38;3.80;;;1.40;;
64932;SDS011;51446;53.850;10.662;2023-08-06T13:18:04;5.30;;;1.50;;
64932;SDS011;51446;53.850;10.662;2023-08-06T13:20:32;2.97;;;1.20;;
64932;SDS011;51446;53.850;10.662;2023-08-06T13:22:58;3.97;;;1.80;;
64932;SDS011;51446;53.850;10.662;2023-08-06T13:25:26;4.50;;;1.90;;
64932;SDS011;51446;53.850;10.662;2023-08-06T13:27:51;3.15;;;1.40;;
64932;SDS011;51446;53.850;10.662;2023-08-06T13:30:16;6.43;;;1.43;;
64932;SDS011;51446;53.850;10.662;2023-08-06T13:32:44;3.87;;;1.47;;
64932;SDS011;51446;53.850;10.662;2023-08-06T13:35:10;2.70;;;1.53;;
64932;SDS011;51446;53.850;10.662;2023-08-06T13:37:35;3.77;;;1.60;;
64932;SDS011;51446;53.850;10.662;2023-08-06T13:40:00;4.07;;;1.73;;
64932;SDS011;51446;53.850;10.662;2023-08-06T13:42:26;3.23;;;1.53;;
64932;SDS011;51446;53.850;10.662;2023-08-06T13:44:51;2.03;;;1.40;;
64932;SDS011;51446;53.850;10.662;2023-08-06T13:47:16;3.43;;;1.67;;
64932;SDS011;51446;53.850;10.662;2023-08-06T13:49:41;2.70;;;1.40;;
64932;SDS011;51446;53.850;10.662;2023-08-06T13:52:07;3.37;;;1.30;;
64932;SDS011;51446;53.850;10.662;2023-08-06T13:54:32;4.10;;;1.37;;
64932;SDS011;51446;53.850;10.662;2023-08-06T13:56:57;2.33;;;1.50;;
64932;SDS011;51446;53.850;10.662;2023-08-06T13:59:23;5.00;;;1.83;;
64932;SDS011;51446;53.850;10.662;2023-08-06T14:01:49;2.23;;;0.93;;
64932;SDS011;51446;53.850;10.662;2023-08-06T14:04:15;3.33;;;1.45;;
64932;SDS011;51446;53.850;10.662;2023-08-06T14:06:40;6.23;;;1.50;;
64932;SDS011;51446;53.850;10.662;2023-08-06T14:09:05;2.60;;;1.20;;
64932;SDS011;51446;53.850;10.662;2023-08-06T14:11:31;2.17;;;1.13;;
64932;SDS011;51446;53.850;10.662;2023-08-06T14:13:56;3.23;;;1.40;;
64932;SDS011;51446;53.850;10.662;2023-08-06T14:16:21;4.00;;;1.40;;
64932;SDS011;51446;53.850;10.662;2023-08-06T14:18:47;6.23;;;1.47;;
64932;SDS011;51446;53.850;10.662;2023-08-06T14:21:12;2.90;;;1.40;;
64932;SDS011;51446;53.850;10.662;2023-08-06T14:23:38;3.50;;;1.48;;
64932;SDS011;51446;53.850;10.662;2023-08-06T14:26:06;2.65;;;1.38;;
64932;SDS011;51446;53.850;10.662;2023-08-06T14:28:32;4.57;;;1.23;;
64932;SDS011;51446;53.850;10.662;2023-08-06T14:30:57;2.60;;;1.60;;
64932;SDS011;51446;53.850;10.662;2023-08-06T14:33:23;7.53;;;1.35;;
64932;SDS011;51446;53.850;10.662;2023-08-06T14:35:48;4.20;;;1.80;;